createdAt,value
2022-10-03T00:01:47.645Z,100.00
2022-10-03T00:04:46.542Z,100.00
2022-10-03T00:07:37.291Z,100.00
2022-10-03T00:10:24.538Z,100.00
2022-10-03T00:13:21.461Z,100.00
2022-10-03T00:16:11.131Z,100.00
2022-10-03T00:18:58.430Z,100.00
2022-10-03T00:21:48.656Z,100.00
2022-10-03T00:24:55.800Z,100.00
2022-10-03T00:27:41.977Z,100.00
2022-10-03T00:30:31.458Z,100.00
2022-10-03T00:33:28.874Z,100.00
2022-10-03T00:36:36.063Z,100.00
2022-10-03T00:39:31.970Z,100.00
2022-10-03T00:42:45.324Z,100.00
2022-10-03T00:45:20.117Z,100.00
2022-10-03T00:48:13.190Z,100.00
2022-10-03T00:51:13.509Z,100.00
2022-10-03T00:53:50.073Z,100.00
2022-10-03T00:56:40.000Z,100.00
2022-10-03T00:59:39.090Z,100.00
2022-10-03T01:02:44.353Z,100.00
2022-10-03T01:05:43.468Z,100.00
2022-10-03T01:08:42.513Z,100.00
2022-10-03T01:11:30.429Z,100.00
2022-10-03T01:14:34.593Z,100.00
2022-10-03T01:17:20.486Z,100.00
2022-10-03T01:19:54.815Z,100.00
2022-10-03T01:22:44.553Z,100.00
2022-10-03T01:25:51.464Z,100.00
2022-10-03T01:28:49.420Z,100.00
2022-10-03T01:31:26.059Z,100.00
2022-10-03T01:34:01.722Z,100.00
2022-10-03T01:36:35.443Z,100.00
2022-10-03T01:39:17.774Z,100.00
2022-10-03T01:42:07.844Z,100.00
2022-10-03T01:45:03.346Z,100.00
2022-10-03T01:47:39.050Z,100.00
2022-10-03T01:50:32.009Z,100.00
2022-10-03T01:53:09.651Z,100.00
2022-10-03T01:56:07.708Z,100.00
2022-10-03T01:59:13.838Z,100.00
2022-10-03T02:01:50.125Z,100.00
2022-10-03T02:04:29.566Z,100.00
2022-10-03T02:07:22.350Z,100.00
2022-10-03T02:09:54.664Z,100.00
2022-10-03T02:12:28.324Z,100.00
2022-10-03T02:15:08.992Z,100.00
2022-10-03T02:17:55.589Z,100.00
2022-10-03T02:20:48.700Z,100.00
2022-10-03T02:23:28.513Z,100.00
2022-10-03T02:26:27.313Z,100.00
2022-10-03T02:29:09.108Z,100.00
2022-10-03T02:32:15.354Z,100.00
2022-10-03T02:35:08.220Z,100.00
2022-10-03T02:37:47.423Z,100.00
2022-10-03T02:41:01.399Z,100.00
2022-10-03T02:43:48.780Z,100.00
2022-10-03T02:46:41.933Z,100.00
2022-10-03T02:49:29.070Z,100.00
2022-10-03T02:52:24.284Z,100.00
2022-10-03T02:55:29.400Z,100.00
2022-10-03T02:58:26.572Z,100.00
2022-10-03T03:01:13.835Z,100.00
2022-10-03T03:03:54.271Z,100.00
2022-10-03T03:06:33.500Z,100.00
2022-10-03T03:09:29.894Z,100.00
2022-10-03T03:12:24.187Z,100.00
2022-10-03T03:15:29.334Z,100.00
2022-10-03T03:18:29.478Z,100.00
2022-10-03T03:21:04.009Z,100.00
2022-10-03T03:23:48.145Z,100.00
2022-10-03T03:26:57.829Z,100.00
2022-10-03T03:29:42.559Z,100.00
2022-10-03T03:32:31.200Z,100.00
2022-10-03T03:35:07.667Z,100.00
2022-10-03T03:38:05.993Z,100.00
2022-10-03T03:40:43.409Z,100.00
2022-10-03T03:43:30.475Z,100.00
2022-10-03T03:46:19.983Z,100.00
2022-10-03T03:48:54.431Z,100.00
2022-10-03T03:51:25.004Z,100.00
2022-10-03T03:54:06.109Z,100.00
2022-10-03T03:57:04.898Z,100.00
2022-10-03T03:59:42.243Z,100.00
2022-10-03T04:02:29.655Z,100.00
2022-10-03T04:05:15.260Z,100.00
2022-10-03T04:08:12.863Z,100.00
2022-10-03T04:10:45.903Z,100.00
2022-10-03T04:13:40.247Z,100.00
2022-10-03T04:16:44.160Z,100.00
2022-10-03T04:19:13.789Z,100.00
2022-10-03T04:22:03.109Z,100.00
2022-10-03T04:24:57.357Z,100.00
2022-10-03T04:27:56.649Z,100.00
2022-10-03T04:30:49.110Z,100.00
2022-10-03T04:33:54.999Z,100.00
2022-10-03T04:36:42.194Z,100.00
2022-10-03T04:39:28.437Z,100.00
2022-10-03T04:42:18.390Z,100.00
2022-10-03T04:45:05.149Z,100.00
2022-10-03T04:47:50.004Z,100.00
2022-10-03T04:50:36.185Z,100.00
2022-10-03T04:53:43.266Z,100.00
2022-10-03T04:56:30.288Z,100.00
2022-10-03T04:59:23.877Z,100.00
2022-10-03T05:02:03.959Z,100.00
2022-10-03T05:05:13.377Z,100.00
2022-10-03T05:08:15.917Z,100.00
2022-10-03T05:11:13.114Z,100.00
2022-10-03T05:14:19.129Z,100.00
2022-10-03T05:17:25.182Z,100.00
2022-10-03T05:20:27.349Z,100.00
2022-10-03T05:23:12.671Z,100.00
2022-10-03T05:26:32.356Z,100.00
2022-10-03T05:29:19.544Z,100.00
2022-10-03T05:32:17.967Z,100.00
2022-10-03T05:34:55.582Z,100.00
2022-10-03T05:38:05.549Z,100.00
2022-10-03T05:40:36.947Z,100.00
2022-10-03T05:43:28.544Z,100.00
2022-10-03T05:46:22.274Z,100.00
2022-10-03T05:49:29.321Z,100.00
2022-10-03T05:52:04.999Z,100.00
2022-10-03T05:54:48.320Z,100.00
2022-10-03T05:57:27.797Z,100.00
2022-10-03T06:00:21.092Z,100.00
2022-10-03T06:03:11.388Z,100.00
2022-10-03T06:05:42.159Z,100.00
2022-10-03T06:08:42.170Z,100.00
2022-10-03T06:11:34.714Z,100.00
2022-10-03T06:14:27.699Z,100.00
2022-10-03T06:17:05.085Z,100.00
2022-10-03T06:19:55.363Z,100.00
2022-10-03T06:22:42.951Z,100.00
2022-10-03T06:25:48.982Z,100.00
2022-10-03T06:28:20.304Z,100.00
2022-10-03T06:31:19.413Z,100.00
2022-10-03T06:34:17.905Z,100.00
2022-10-03T06:36:45.898Z,100.00
2022-10-03T06:39:43.775Z,100.00
2022-10-03T06:42:36.708Z,100.00
2022-10-03T06:45:16.726Z,100.00
2022-10-03T06:48:00.953Z,100.00
2022-10-03T06:51:00.336Z,100.00
2022-10-03T06:53:43.519Z,100.00
2022-10-03T06:56:50.233Z,100.00
2022-10-03T06:59:41.171Z,100.00
2022-10-03T07:02:46.538Z,100.00
2022-10-03T07:05:52.313Z,100.00
2022-10-03T07:08:45.528Z,100.00
2022-10-03T07:11:39.154Z,100.00
2022-10-03T07:14:38.934Z,100.00
2022-10-03T07:17:19.509Z,100.00
2022-10-03T07:20:20.662Z,100.00
2022-10-03T07:23:22.524Z,100.00
2022-10-03T07:26:26.987Z,100.00
2022-10-03T07:29:19.250Z,100.00
2022-10-03T07:32:25.098Z,100.00
2022-10-03T07:35:53.901Z,100.00
2022-10-03T07:39:01.180Z,100.00
2022-10-03T07:41:42.371Z,100.00
2022-10-03T07:44:19.420Z,100.00
2022-10-03T07:47:18.907Z,100.00
2022-10-03T07:49:56.643Z,100.00
2022-10-03T07:52:26.499Z,100.00
2022-10-03T07:55:08.592Z,100.00
2022-10-03T07:57:45.827Z,100.00
2022-10-03T08:00:30.277Z,100.00
2022-10-03T08:03:36.618Z,100.00
2022-10-03T08:06:24.882Z,100.00
2022-10-03T08:09:19.892Z,100.00
2022-10-03T08:12:25.103Z,100.00
2022-10-03T08:15:22.212Z,100.00
2022-10-03T08:18:03.525Z,100.00
2022-10-03T08:20:48.910Z,100.00
2022-10-03T08:23:29.324Z,100.00
2022-10-03T08:26:13.209Z,100.00
2022-10-03T08:29:26.581Z,100.00
2022-10-03T08:32:05.401Z,100.00
2022-10-03T08:34:59.818Z,100.00
2022-10-03T08:38:05.442Z,100.00
2022-10-03T08:40:45.869Z,100.00
2022-10-03T08:43:42.360Z,100.00
2022-10-03T08:46:19.407Z,100.00
2022-10-03T08:48:56.848Z,100.00
2022-10-03T08:51:43.338Z,100.00
2022-10-03T08:54:51.796Z,100.00
2022-10-03T08:57:25.012Z,100.00
2022-10-03T09:00:31.501Z,100.00
2022-10-03T09:03:31.848Z,100.00
2022-10-03T09:06:24.547Z,100.00
2022-10-03T09:09:14.027Z,100.00
2022-10-03T09:12:15.692Z,100.00
2022-10-03T09:15:12.228Z,100.00
2022-10-03T09:18:18.954Z,100.00
2022-10-03T09:21:07.479Z,100.00
2022-10-03T09:24:03.378Z,100.00
2022-10-03T09:26:49.929Z,100.00
2022-10-03T09:29:55.642Z,100.00
2022-10-03T09:32:43.315Z,100.00
2022-10-03T09:35:52.335Z,100.00
2022-10-03T09:38:46.099Z,100.00
2022-10-03T09:41:52.624Z,100.00
2022-10-03T09:44:57.952Z,100.00
2022-10-03T09:47:39.281Z,100.00
2022-10-03T09:50:38.480Z,100.00
2022-10-03T09:53:49.891Z,100.00
2022-10-03T09:56:44.902Z,100.00
2022-10-03T09:59:31.881Z,100.00
2022-10-03T10:02:13.246Z,100.00
2022-10-03T10:04:56.343Z,100.00
2022-10-03T10:07:47.071Z,100.00
2022-10-03T10:10:31.720Z,100.00
2022-10-03T10:13:56.049Z,100.00
2022-10-03T10:16:52.799Z,100.00
2022-10-03T10:20:05.162Z,100.00
2022-10-03T10:22:52.456Z,100.00
2022-10-03T10:25:58.816Z,100.00
2022-10-03T10:29:05.493Z,100.00
2022-10-03T10:31:53.243Z,100.00
2022-10-03T10:34:52.230Z,100.00
2022-10-03T10:38:03.172Z,100.00
2022-10-03T10:41:03.589Z,100.00
2022-10-03T10:43:51.340Z,100.00
2022-10-03T10:46:47.619Z,100.00
2022-10-03T10:49:38.982Z,100.00
2022-10-03T10:52:36.370Z,100.00
2022-10-03T10:55:25.679Z,100.00
2022-10-03T10:58:23.518Z,100.00
2022-10-03T11:01:28.871Z,100.00
2022-10-03T11:04:18.849Z,100.00
2022-10-03T11:06:53.671Z,100.00
2022-10-03T11:09:59.528Z,100.00
2022-10-03T11:12:42.197Z,100.00
2022-10-03T11:15:48.434Z,100.00
2022-10-03T11:18:18.855Z,100.00
2022-10-03T11:21:24.747Z,100.00
2022-10-03T11:24:30.161Z,100.00
2022-10-03T11:27:23.173Z,100.00
2022-10-03T11:30:16.128Z,100.00
2022-10-03T11:33:14.209Z,100.00
2022-10-03T11:36:20.341Z,100.00
2022-10-03T11:38:54.209Z,100.00
2022-10-03T11:41:41.294Z,100.00
2022-10-03T11:44:40.571Z,100.00
2022-10-03T11:47:33.262Z,100.00
2022-10-03T11:50:45.831Z,100.00
2022-10-03T11:53:27.290Z,100.00
2022-10-03T11:55:55.754Z,100.00
2022-10-03T11:58:42.018Z,96.44
2022-10-03T12:01:16.505Z,99.40
2022-10-03T12:04:09.267Z,95.80
2022-10-03T12:07:17.642Z,92.43
2022-10-03T12:10:08.724Z,95.15
2022-10-03T12:12:50.682Z,91.86
2022-10-03T12:15:35.028Z,94.33
2022-10-03T12:18:21.908Z,91.80
2022-10-03T12:21:09.139Z,93.82
2022-10-03T12:23:43.659Z,94.72
2022-10-03T12:26:17.764Z,94.07
2022-10-03T12:28:52.709Z,89.99
2022-10-03T12:31:46.713Z,88.25
2022-10-03T12:34:33.421Z,88.11
2022-10-03T12:37:31.544Z,85.78
2022-10-03T12:40:16.154Z,84.79
2022-10-03T12:43:05.499Z,82.33
2022-10-03T12:45:44.517Z,81.13
2022-10-03T12:48:43.097Z,83.68
2022-10-03T12:51:42.783Z,80.66
2022-10-03T12:54:45.089Z,79.41
2022-10-03T12:57:51.080Z,80.63
2022-10-03T13:00:21.693Z,80.91
2022-10-03T13:03:04.719Z,79.22
2022-10-03T13:05:44.910Z,79.75
2022-10-03T13:08:51.858Z,80.45
2022-10-03T13:11:58.745Z,79.29
2022-10-03T13:14:37.029Z,79.76
2022-10-03T13:17:27.154Z,82.86
2022-10-03T13:20:00.883Z,77.66
2022-10-03T13:22:35.228Z,76.74
2022-10-03T13:25:17.237Z,76.27
2022-10-03T13:27:52.240Z,77.04
2022-10-03T13:30:24.850Z,76.69
2022-10-03T13:32:58.342Z,77.66
2022-10-03T13:35:58.708Z,76.83
2022-10-03T13:38:38.126Z,72.46
2022-10-03T13:41:12.353Z,72.84
2022-10-03T13:43:45.143Z,75.28
2022-10-03T13:46:17.697Z,73.55
2022-10-03T13:48:55.124Z,74.79
2022-10-03T13:51:44.825Z,73.33
2022-10-03T13:54:39.999Z,74.01
2022-10-03T13:57:16.808Z,73.77
2022-10-03T14:00:13.560Z,74.34
2022-10-03T14:03:18.333Z,74.14
2022-10-03T14:06:11.362Z,74.08
2022-10-03T14:08:58.881Z,73.79
2022-10-03T14:11:44.114Z,74.51
2022-10-03T14:14:35.216Z,74.72
2022-10-03T14:17:31.939Z,75.88
2022-10-03T14:20:19.861Z,76.05
2022-10-03T14:23:06.483Z,73.72
2022-10-03T14:25:41.663Z,75.79
2022-10-03T14:28:41.780Z,73.47
2022-10-03T14:31:19.143Z,74.34
2022-10-03T14:33:56.782Z,75.42
2022-10-03T14:36:43.258Z,75.25
2022-10-03T14:39:37.407Z,75.39
2022-10-03T14:42:37.629Z,76.22
2022-10-03T14:45:13.854Z,76.56
2022-10-03T14:47:43.600Z,77.64
2022-10-03T14:50:24.402Z,76.62
2022-10-03T14:53:02.551Z,76.40
2022-10-03T14:55:40.035Z,77.69
2022-10-03T14:58:29.749Z,78.16
2022-10-03T15:01:25.020Z,78.05
2022-10-03T15:04:32.596Z,78.13
2022-10-03T15:07:05.500Z,77.04
2022-10-03T15:09:42.803Z,76.71
2022-10-03T15:12:16.433Z,76.67
2022-10-03T15:14:48.651Z,78.40
2022-10-03T15:17:23.261Z,78.42
2022-10-03T15:19:56.523Z,79.30
2022-10-03T15:22:42.918Z,80.08
2022-10-03T15:25:18.596Z,80.56
2022-10-03T15:27:50.279Z,81.25
2022-10-03T15:30:27.881Z,82.98
2022-10-03T15:33:16.942Z,82.58
2022-10-03T15:35:49.781Z,83.82
2022-10-03T15:38:27.349Z,84.51
2022-10-03T15:41:20.365Z,85.53
2022-10-03T15:43:52.836Z,84.47
2022-10-03T15:46:40.285Z,83.97
2022-10-03T15:49:12.211Z,83.36
2022-10-03T15:51:40.728Z,84.97
2022-10-03T15:54:13.338Z,85.28
2022-10-03T15:56:48.859Z,83.40
2022-10-03T15:59:45.870Z,83.82
2022-10-03T16:02:21.524Z,84.51
2022-10-03T16:04:54.977Z,85.26
2022-10-03T16:07:42.324Z,86.03
2022-10-03T16:10:34.770Z,85.14
2022-10-03T16:13:15.400Z,84.83
2022-10-03T16:16:10.703Z,85.53
2022-10-03T16:18:57.234Z,87.28
2022-10-03T16:21:45.238Z,87.82
2022-10-03T16:24:21.865Z,88.99
2022-10-03T16:26:56.532Z,89.39
2022-10-03T16:29:29.535Z,89.45
2022-10-03T16:32:09.581Z,91.47
2022-10-03T16:34:43.675Z,91.79
2022-10-03T16:37:26.574Z,92.95
2022-10-03T16:40:03.773Z,93.63
2022-10-03T16:42:46.044Z,95.35
2022-10-03T16:45:38.152Z,96.33
2022-10-03T16:48:31.298Z,97.89
2022-10-03T16:51:00.024Z,98.74
2022-10-03T16:53:29.578Z,99.04
2022-10-03T16:56:18.305Z,100.00
2022-10-03T16:58:55.715Z,100.00
2022-10-03T17:01:42.982Z,99.37
2022-10-03T17:04:33.230Z,98.90
2022-10-03T17:07:04.725Z,98.68
2022-10-03T17:09:55.435Z,99.33
2022-10-03T17:12:30.453Z,100.00
2022-10-03T17:15:08.170Z,100.00
2022-10-03T17:18:03.155Z,100.00
2022-10-03T17:20:44.529Z,100.00
2022-10-03T17:23:27.289Z,100.00
2022-10-03T17:26:05.587Z,100.00
2022-10-03T17:29:11.429Z,100.00
2022-10-03T17:31:46.036Z,100.00
2022-10-03T17:34:17.512Z,100.00
2022-10-03T17:37:24.617Z,100.00
2022-10-03T17:40:11.882Z,100.00
2022-10-03T17:42:41.684Z,100.00
2022-10-03T17:45:17.448Z,100.00
2022-10-03T17:48:11.424Z,100.00
2022-10-03T17:51:15.368Z,100.00
2022-10-03T17:53:48.153Z,100.00
2022-10-03T17:56:21.391Z,100.00
2022-10-03T17:59:03.621Z,100.00
2022-10-03T18:01:37.830Z,100.00
2022-10-03T18:04:11.862Z,100.00
2022-10-03T18:06:43.563Z,100.00
2022-10-03T18:09:17.598Z,100.00
2022-10-03T18:11:50.377Z,100.00
2022-10-03T18:15:17.428Z,100.00
2022-10-03T18:17:49.459Z,100.00
2022-10-03T18:20:42.197Z,100.00
2022-10-03T18:23:53.216Z,100.00
2022-10-03T18:26:37.136Z,100.00
2022-10-03T18:29:11.703Z,100.00
2022-10-03T18:31:45.491Z,100.00
2022-10-03T18:34:20.697Z,100.00
2022-10-03T18:36:51.424Z,100.00
2022-10-03T18:39:20.236Z,100.00
2022-10-03T18:41:53.977Z,100.00
2022-10-03T18:44:24.376Z,100.00
2022-10-03T18:47:16.637Z,100.00
2022-10-03T18:49:57.682Z,100.00
2022-10-03T18:52:32.633Z,100.00
2022-10-03T18:55:34.726Z,100.00
2022-10-03T18:58:13.986Z,100.00
2022-10-03T19:01:01.689Z,100.00
2022-10-03T19:03:39.708Z,100.00
2022-10-03T19:06:30.038Z,100.00
2022-10-03T19:09:09.681Z,100.00
2022-10-03T19:11:45.322Z,100.00
2022-10-03T19:14:25.789Z,100.00
2022-10-03T19:17:23.579Z,100.00
2022-10-03T19:19:59.042Z,100.00
2022-10-03T19:22:28.532Z,100.00
2022-10-03T19:24:59.500Z,100.00
2022-10-03T19:27:52.657Z,100.00
2022-10-03T19:30:26.418Z,100.00
2022-10-03T19:32:59.715Z,100.00
2022-10-03T19:35:30.384Z,100.00
2022-10-03T19:38:28.289Z,100.00
2022-10-03T19:41:01.945Z,100.00
2022-10-03T19:43:43.416Z,100.00
2022-10-03T19:46:15.347Z,100.00
2022-10-03T19:48:52.283Z,100.00
2022-10-03T19:51:25.623Z,100.00
2022-10-03T19:53:57.623Z,100.00
2022-10-03T19:56:31.088Z,100.00
2022-10-03T19:59:06.457Z,100.00
2022-10-03T20:01:49.091Z,100.00
2022-10-03T20:04:36.479Z,100.00
2022-10-03T20:07:13.130Z,100.00
2022-10-03T20:09:56.497Z,100.00
2022-10-03T20:12:29.492Z,100.00
2022-10-03T20:15:18.369Z,100.00
2022-10-03T20:17:47.718Z,100.00
2022-10-03T20:20:23.497Z,100.00
2022-10-03T20:22:55.070Z,100.00
2022-10-03T20:25:44.093Z,100.00
2022-10-03T20:28:21.839Z,100.00
2022-10-03T20:30:53.132Z,100.00
2022-10-03T20:33:25.732Z,100.00
2022-10-03T20:36:01.403Z,100.00
2022-10-03T20:39:07.399Z,100.00
2022-10-03T20:41:35.717Z,100.00
2022-10-03T20:44:15.444Z,100.00
2022-10-03T20:47:06.568Z,100.00
2022-10-03T20:49:48.926Z,100.00
2022-10-03T20:52:22.531Z,100.00
2022-10-03T20:54:53.082Z,100.00
2022-10-03T20:57:33.135Z,100.00
2022-10-03T21:00:10.460Z,100.00
2022-10-03T21:02:51.571Z,100.00
2022-10-03T21:05:24.434Z,100.00
2022-10-03T21:07:56.790Z,100.00
2022-10-03T21:10:37.308Z,100.00
2022-10-03T21:13:10.404Z,100.00
2022-10-03T21:15:54.016Z,100.00
2022-10-03T21:18:27.572Z,100.00
2022-10-03T21:21:20.817Z,100.00
2022-10-03T21:24:11.346Z,100.00
2022-10-03T21:27:11.457Z,100.00
2022-10-03T21:29:41.008Z,100.00
2022-10-03T21:32:27.693Z,100.00
2022-10-03T21:35:01.376Z,100.00
2022-10-03T21:38:07.832Z,100.00
2022-10-03T21:40:54.614Z,100.00
2022-10-03T21:43:48.331Z,100.00
2022-10-03T21:46:29.831Z,100.00
2022-10-03T21:49:02.188Z,100.00
2022-10-03T21:51:58.860Z,100.00
2022-10-03T21:55:04.561Z,100.00
2022-10-03T21:57:55.595Z,100.00
2022-10-03T22:00:30.360Z,100.00
2022-10-03T22:03:08.557Z,100.00
2022-10-03T22:05:49.148Z,100.00
2022-10-03T22:08:26.517Z,100.00
2022-10-03T22:11:13.964Z,100.00
2022-10-03T22:13:47.542Z,100.00
2022-10-03T22:16:51.311Z,100.00
2022-10-03T22:19:22.877Z,100.00
2022-10-03T22:22:00.419Z,100.00
2022-10-03T22:25:05.361Z,100.00
2022-10-03T22:27:50.131Z,100.00
2022-10-03T22:30:20.230Z,100.00
2022-10-03T22:33:14.610Z,100.00
2022-10-03T22:35:52.003Z,100.00
2022-10-03T22:38:25.670Z,100.00
2022-10-03T22:40:55.425Z,100.00
2022-10-03T22:43:24.931Z,100.00
2022-10-03T22:45:56.544Z,100.00
2022-10-03T22:48:33.617Z,100.00
2022-10-03T22:51:03.553Z,100.00
2022-10-03T22:53:35.892Z,100.00
2022-10-03T22:56:42.655Z,100.00
2022-10-03T22:59:31.976Z,100.00
2022-10-03T23:02:02.752Z,100.00
2022-10-03T23:04:50.055Z,100.00
2022-10-03T23:07:26.686Z,100.00
2022-10-03T23:10:26.870Z,100.00
2022-10-03T23:13:00.967Z,100.00
2022-10-03T23:15:30.774Z,100.00
2022-10-03T23:18:08.057Z,100.00
2022-10-03T23:21:03.652Z,100.00
2022-10-03T23:23:36.121Z,100.00
2022-10-03T23:26:26.269Z,100.00
2022-10-03T23:29:00.638Z,100.00
2022-10-03T23:32:06.098Z,100.00
2022-10-03T23:34:40.513Z,100.00
2022-10-03T23:37:14.644Z,100.00
2022-10-03T23:39:55.011Z,100.00
2022-10-03T23:42:46.014Z,100.00
2022-10-03T23:45:19.893Z,100.00
2022-10-03T23:48:14.832Z,100.00
2022-10-03T23:50:47.601Z,100.00
2022-10-03T23:53:28.118Z,100.00
2022-10-03T23:55:57.708Z,100.00
2022-10-03T23:58:31.972Z,100.00
